sensor_id;sensor_type;location;lat;lon;timestamp;P1;durP1;ratioP1;P2;durP2;ratioP2
55706;SDS011;41608;45.384;20.394;2023-04-15T00:00:38;13.38;;;9.75;;
55706;SDS011;41608;45.384;20.394;2023-04-15T00:03:06;14.88;;;10.60;;
55706;SDS011;41608;45.384;20.394;2023-04-15T00:05:33;14.93;;;9.82;;
55706;SDS011;41608;45.384;20.394;2023-04-15T00:07:59;14.18;;;10.02;;
55706;SDS011;41608;45.384;20.394;2023-04-15T00:10:26;13.30;;;9.88;;
55706;SDS011;41608;45.384;20.394;2023-04-15T00:12:52;16.13;;;9.55;;
55706;SDS011;41608;45.384;20.394;2023-04-15T00:15:21;16.67;;;10.85;;
55706;SDS011;41608;45.384;20.394;2023-04-15T00:17:49;15.10;;;10.07;;
55706;SDS011;41608;45.384;20.394;2023-04-15T00:20:16;14.52;;;10.48;;
55706;SDS011;41608;45.384;20.394;2023-04-15T00:22:45;16.10;;;10.52;;
55706;SDS011;41608;45.384;20.394;2023-04-15T00:25:11;14.40;;;8.82;;
55706;SDS011;41608;45.384;20.394;2023-04-15T00:27:37;10.30;;;7.85;;
55706;SDS011;41608;45.384;20.394;2023-04-15T00:30:06;14.70;;;11.27;;
55706;SDS011;41608;45.384;20.394;2023-04-15T00:32:33;13.25;;;8.98;;
55706;SDS011;41608;45.384;20.394;2023-04-15T00:35:05;11.98;;;8.10;;
55706;SDS011;41608;45.384;20.394;2023-04-15T00:37:31;15.73;;;9.48;;
55706;SDS011;41608;45.384;20.394;2023-04-15T00:40:01;19.63;;;11.50;;
55706;SDS011;41608;45.384;20.394;2023-04-15T00:42:30;28.85;;;16.33;;
55706;SDS011;41608;45.384;20.394;2023-04-15T00:44:57;22.35;;;14.88;;
55706;SDS011;41608;45.384;20.394;2023-04-15T00:47:23;25.65;;;13.38;;
55706;SDS011;41608;45.384;20.394;2023-04-15T00:49:55;17.70;;;12.70;;
55706;SDS011;41608;45.384;20.394;2023-04-15T00:52:22;19.90;;;12.75;;
55706;SDS011;41608;45.384;20.394;2023-04-15T00:54:48;16.75;;;10.00;;
55706;SDS011;41608;45.384;20.394;2023-04-15T00:57:15;13.07;;;9.57;;
55706;SDS011;41608;45.384;20.394;2023-04-15T00:59:44;11.75;;;8.50;;
55706;SDS011;41608;45.384;20.394;2023-04-15T01:02:10;10.07;;;7.65;;
55706;SDS011;41608;45.384;20.394;2023-04-15T01:04:36;11.68;;;8.10;;
55706;SDS011;41608;45.384;20.394;2023-04-15T01:07:05;11.10;;;8.43;;
55706;SDS011;41608;45.384;20.394;2023-04-15T01:09:31;12.20;;;8.07;;
55706;SDS011;41608;45.384;20.394;2023-04-15T01:11:57;12.20;;;8.63;;
55706;SDS011;41608;45.384;20.394;2023-04-15T01:14:24;12.38;;;9.52;;
55706;SDS011;41608;45.384;20.394;2023-04-15T01:16:52;13.27;;;9.75;;
55706;SDS011;41608;45.384;20.394;2023-04-15T01:19:18;13.48;;;9.30;;
55706;SDS011;41608;45.384;20.394;2023-04-15T01:21:45;13.50;;;10.45;;
55706;SDS011;41608;45.384;20.394;2023-04-15T01:24:11;10.65;;;8.60;;
55706;SDS011;41608;45.384;20.394;2023-04-15T01:26:39;11.90;;;9.30;;
55706;SDS011;41608;45.384;20.394;2023-04-15T01:29:05;11.15;;;8.93;;
55706;SDS011;41608;45.384;20.394;2023-04-15T01:31:32;15.40;;;8.85;;
55706;SDS011;41608;45.384;20.394;2023-04-15T01:33:58;11.52;;;8.57;;
55706;SDS011;41608;45.384;20.394;2023-04-15T01:36:25;11.70;;;8.85;;
55706;SDS011;41608;45.384;20.394;2023-04-15T01:38:51;14.38;;;9.60;;
55706;SDS011;41608;45.384;20.394;2023-04-15T01:41:24;16.25;;;9.13;;
55706;SDS011;41608;45.384;20.394;2023-04-15T01:43:50;12.55;;;10.13;;
55706;SDS011;41608;45.384;20.394;2023-04-15T01:46:17;16.88;;;10.98;;
55706;SDS011;41608;45.384;20.394;2023-04-15T01:48:43;17.40;;;13.07;;
55706;SDS011;41608;45.384;20.394;2023-04-15T01:51:12;12.77;;;10.45;;
55706;SDS011;41608;45.384;20.394;2023-04-15T01:53:38;16.63;;;11.82;;
55706;SDS011;41608;45.384;20.394;2023-04-15T01:56:04;25.15;;;15.20;;
55706;SDS011;41608;45.384;20.394;2023-04-15T01:58:33;18.25;;;11.15;;
55706;SDS011;41608;45.384;20.394;2023-04-15T02:00:59;14.48;;;9.82;;
55706;SDS011;41608;45.384;20.394;2023-04-15T02:03:27;12.40;;;8.88;;
55706;SDS011;41608;45.384;20.394;2023-04-15T02:05:58;10.73;;;7.57;;
55706;SDS011;41608;45.384;20.394;2023-04-15T02:08:27;12.00;;;8.18;;
55706;SDS011;41608;45.384;20.394;2023-04-15T02:10:53;12.95;;;9.32;;
55706;SDS011;41608;45.384;20.394;2023-04-15T02:13:22;12.88;;;8.90;;
55706;SDS011;41608;45.384;20.394;2023-04-15T02:15:48;9.52;;;8.02;;
55706;SDS011;41608;45.384;20.394;2023-04-15T02:18:17;12.52;;;8.35;;
55706;SDS011;41608;45.384;20.394;2023-04-15T02:20:43;10.90;;;8.48;;
55706;SDS011;41608;45.384;20.394;2023-04-15T02:23:10;12.25;;;8.40;;
55706;SDS011;41608;45.384;20.394;2023-04-15T02:25:37;12.70;;;9.05;;
55706;SDS011;41608;45.384;20.394;2023-04-15T02:28:04;12.35;;;7.90;;
55706;SDS011;41608;45.384;20.394;2023-04-15T02:30:30;10.50;;;8.25;;
55706;SDS011;41608;45.384;20.394;2023-04-15T02:32:57;12.02;;;8.18;;
55706;SDS011;41608;45.384;20.394;2023-04-15T02:35:23;10.48;;;7.97;;
55706;SDS011;41608;45.384;20.394;2023-04-15T02:37:50;10.20;;;7.47;;
55706;SDS011;41608;45.384;20.394;2023-04-15T02:40:16;11.10;;;8.10;;
55706;SDS011;41608;45.384;20.394;2023-04-15T02:42:50;11.65;;;8.20;;
55706;SDS011;41608;45.384;20.394;2023-04-15T02:45:16;12.32;;;9.07;;
55706;SDS011;41608;45.384;20.394;2023-04-15T02:47:44;10.18;;;8.00;;
55706;SDS011;41608;45.384;20.394;2023-04-15T02:50:11;9.80;;;7.93;;
55706;SDS011;41608;45.384;20.394;2023-04-15T02:52:39;11.20;;;8.68;;
55706;SDS011;41608;45.384;20.394;2023-04-15T02:55:06;11.20;;;8.52;;
55706;SDS011;41608;45.384;20.394;2023-04-15T02:57:34;11.07;;;8.55;;
55706;SDS011;41608;45.384;20.394;2023-04-15T03:00:04;10.77;;;8.68;;
55706;SDS011;41608;45.384;20.394;2023-04-15T03:02:36;11.57;;;8.38;;
55706;SDS011;41608;45.384;20.394;2023-04-15T03:05:03;15.63;;;9.32;;
55706;SDS011;41608;45.384;20.394;2023-04-15T03:07:30;10.10;;;8.70;;
55706;SDS011;41608;45.384;20.394;2023-04-15T03:09:56;12.68;;;9.02;;
55706;SDS011;41608;45.384;20.394;2023-04-15T03:12:25;10.48;;;8.65;;
55706;SDS011;41608;45.384;20.394;2023-04-15T03:14:51;10.52;;;8.75;;
55706;SDS011;41608;45.384;20.394;2023-04-15T03:17:18;11.05;;;9.75;;
55706;SDS011;41608;45.384;20.394;2023-04-15T03:19:44;14.30;;;9.15;;
55706;SDS011;41608;45.384;20.394;2023-04-15T03:22:10;14.88;;;10.77;;
55706;SDS011;41608;45.384;20.394;2023-04-15T03:24:38;16.90;;;10.38;;
55706;SDS011;41608;45.384;20.394;2023-04-15T03:27:05;13.05;;;9.45;;
55706;SDS011;41608;45.384;20.394;2023-04-15T03:29:34;10.13;;;8.60;;
55706;SDS011;41608;45.384;20.394;2023-04-15T03:32:00;11.57;;;10.02;;
55706;SDS011;41608;45.384;20.394;2023-04-15T03:34:26;12.50;;;8.32;;
55706;SDS011;41608;45.384;20.394;2023-04-15T03:36:52;11.88;;;9.35;;
55706;SDS011;41608;45.384;20.394;2023-04-15T03:39:19;12.70;;;9.68;;
55706;SDS011;41608;45.384;20.394;2023-04-15T03:41:45;10.85;;;8.50;;
55706;SDS011;41608;45.384;20.394;2023-04-15T03:44:17;9.73;;;8.73;;
55706;SDS011;41608;45.384;20.394;2023-04-15T03:46:43;12.13;;;9.43;;
55706;SDS011;41608;45.384;20.394;2023-04-15T03:49:09;11.50;;;9.77;;
55706;SDS011;41608;45.384;20.394;2023-04-15T03:51:40;13.27;;;10.35;;
55706;SDS011;41608;45.384;20.394;2023-04-15T03:54:06;12.77;;;10.57;;
55706;SDS011;41608;45.384;20.394;2023-04-15T03:56:32;14.00;;;10.85;;
55706;SDS011;41608;45.384;20.394;2023-04-15T03:58:58;12.82;;;9.45;;
55706;SDS011;41608;45.384;20.394;2023-04-15T04:01:25;16.63;;;11.07;;
55706;SDS011;41608;45.384;20.394;2023-04-15T04:03:51;14.05;;;11.18;;
55706;SDS011;41608;45.384;20.394;2023-04-15T04:06:17;16.63;;;11.38;;
55706;SDS011;41608;45.384;20.394;2023-04-15T04:08:43;13.77;;;11.15;;
55706;SDS011;41608;45.384;20.394;2023-04-15T04:11:09;17.35;;;11.73;;
55706;SDS011;41608;45.384;20.394;2023-04-15T04:13:35;15.32;;;12.18;;
55706;SDS011;41608;45.384;20.394;2023-04-15T04:16:02;17.33;;;12.40;;
55706;SDS011;41608;45.384;20.394;2023-04-15T04:18:29;17.77;;;12.15;;
55706;SDS011;41608;45.384;20.394;2023-04-15T04:20:55;19.58;;;12.57;;
55706;SDS011;41608;45.384;20.394;2023-04-15T04:23:26;18.23;;;13.30;;
55706;SDS011;41608;45.384;20.394;2023-04-15T04:25:52;15.63;;;12.65;;
55706;SDS011;41608;45.384;20.394;2023-04-15T04:28:18;19.10;;;13.65;;
55706;SDS011;41608;45.384;20.394;2023-04-15T04:30:47;17.50;;;13.65;;
55706;SDS011;41608;45.384;20.394;2023-04-15T04:33:16;17.05;;;12.70;;
55706;SDS011;41608;45.384;20.394;2023-04-15T04:35:42;20.77;;;17.00;;
55706;SDS011;41608;45.384;20.394;2023-04-15T04:38:09;18.50;;;13.07;;
55706;SDS011;41608;45.384;20.394;2023-04-15T04:40:35;17.85;;;13.40;;
55706;SDS011;41608;45.384;20.394;2023-04-15T04:43:04;20.58;;;12.95;;
55706;SDS011;41608;45.384;20.394;2023-04-15T04:45:30;19.13;;;13.68;;
55706;SDS011;41608;45.384;20.394;2023-04-15T04:47:56;16.48;;;13.48;;
55706;SDS011;41608;45.384;20.394;2023-04-15T04:50:22;19.77;;;12.77;;
55706;SDS011;41608;45.384;20.394;2023-04-15T04:52:51;14.10;;;11.85;;
55706;SDS011;41608;45.384;20.394;2023-04-15T04:55:17;19.08;;;13.85;;
55706;SDS011;41608;45.384;20.394;2023-04-15T04:57:43;20.23;;;13.85;;
55706;SDS011;41608;45.384;20.394;2023-04-15T05:00:12;20.70;;;12.90;;
55706;SDS011;41608;45.384;20.394;2023-04-15T05:02:38;18.67;;;13.27;;
55706;SDS011;41608;45.384;20.394;2023-04-15T05:05:06;18.48;;;13.25;;
55706;SDS011;41608;45.384;20.394;2023-04-15T05:07:32;18.10;;;13.20;;
55706;SDS011;41608;45.384;20.394;2023-04-15T05:09:59;18.23;;;13.43;;
55706;SDS011;41608;45.384;20.394;2023-04-15T05:12:25;18.42;;;13.20;;
55706;SDS011;41608;45.384;20.394;2023-04-15T05:14:53;18.10;;;12.30;;
55706;SDS011;41608;45.384;20.394;2023-04-15T05:17:22;19.08;;;12.88;;
55706;SDS011;41608;45.384;20.394;2023-04-15T05:19:48;14.30;;;11.10;;
55706;SDS011;41608;45.384;20.394;2023-04-15T05:22:14;17.52;;;12.70;;
55706;SDS011;41608;45.384;20.394;2023-04-15T05:24:41;17.67;;;12.40;;
55706;SDS011;41608;45.384;20.394;2023-04-15T05:27:10;17.60;;;11.05;;
55706;SDS011;41608;45.384;20.394;2023-04-15T05:29:38;16.10;;;11.38;;
55706;SDS011;41608;45.384;20.394;2023-04-15T05:32:04;16.08;;;11.77;;
55706;SDS011;41608;45.384;20.394;2023-04-15T05:34:31;12.55;;;9.60;;
55706;SDS011;41608;45.384;20.394;2023-04-15T05:36:57;14.50;;;10.75;;
55706;SDS011;41608;45.384;20.394;2023-04-15T05:39:23;11.15;;;9.73;;
55706;SDS011;41608;45.384;20.394;2023-04-15T05:41:50;15.52;;;12.07;;
55706;SDS011;41608;45.384;20.394;2023-04-15T05:44:19;17.33;;;11.65;;
55706;SDS011;41608;45.384;20.394;2023-04-15T05:46:45;16.35;;;11.93;;
55706;SDS011;41608;45.384;20.394;2023-04-15T05:49:13;30.63;;;12.50;;
55706;SDS011;41608;45.384;20.394;2023-04-15T05:51:39;16.63;;;10.57;;
55706;SDS011;41608;45.384;20.394;2023-04-15T05:54:05;19.10;;;11.75;;
55706;SDS011;41608;45.384;20.394;2023-04-15T05:56:31;13.50;;;10.38;;
55706;SDS011;41608;45.384;20.394;2023-04-15T05:58:58;19.75;;;11.27;;
55706;SDS011;41608;45.384;20.394;2023-04-15T06:01:24;20.67;;;12.63;;
55706;SDS011;41608;45.384;20.394;2023-04-15T06:03:50;17.08;;;12.20;;
55706;SDS011;41608;45.384;20.394;2023-04-15T06:06:16;19.23;;;13.52;;
55706;SDS011;41608;45.384;20.394;2023-04-15T06:08:42;21.90;;;15.23;;
55706;SDS011;41608;45.384;20.394;2023-04-15T06:11:08;21.75;;;16.08;;
55706;SDS011;41608;45.384;20.394;2023-04-15T06:13:37;19.95;;;12.95;;
55706;SDS011;41608;45.384;20.394;2023-04-15T06:16:04;16.58;;;11.95;;
55706;SDS011;41608;45.384;20.394;2023-04-15T06:18:30;17.80;;;12.10;;
55706;SDS011;41608;45.384;20.394;2023-04-15T06:20:56;24.73;;;12.65;;
55706;SDS011;41608;45.384;20.394;2023-04-15T06:23:22;14.38;;;9.88;;
55706;SDS011;41608;45.384;20.394;2023-04-15T06:25:48;13.48;;;9.48;;
55706;SDS011;41608;45.384;20.394;2023-04-15T06:28:15;15.60;;;9.60;;
55706;SDS011;41608;45.384;20.394;2023-04-15T06:30:41;14.32;;;10.05;;
55706;SDS011;41608;45.384;20.394;2023-04-15T06:33:07;15.32;;;9.93;;
55706;SDS011;41608;45.384;20.394;2023-04-15T06:35:36;14.90;;;10.18;;
55706;SDS011;41608;45.384;20.394;2023-04-15T06:38:03;18.25;;;9.57;;
55706;SDS011;41608;45.384;20.394;2023-04-15T06:40:42;14.43;;;9.23;;
55706;SDS011;41608;45.384;20.394;2023-04-15T06:43:43;12.88;;;7.78;;
55706;SDS011;41608;45.384;20.394;2023-04-15T06:46:09;14.60;;;9.80;;
55706;SDS011;41608;45.384;20.394;2023-04-15T06:48:35;14.65;;;8.25;;
55706;SDS011;41608;45.384;20.394;2023-04-15T06:51:02;11.13;;;7.63;;
55706;SDS011;41608;45.384;20.394;2023-04-15T06:53:28;10.45;;;7.55;;
55706;SDS011;41608;45.384;20.394;2023-04-15T06:55:57;10.13;;;7.10;;
55706;SDS011;41608;45.384;20.394;2023-04-15T06:58:23;10.25;;;7.30;;
55706;SDS011;41608;45.384;20.394;2023-04-15T07:00:49;9.48;;;5.80;;
55706;SDS011;41608;45.384;20.394;2023-04-15T07:03:16;8.48;;;5.88;;
55706;SDS011;41608;45.384;20.394;2023-04-15T07:05:51;13.27;;;6.25;;
55706;SDS011;41608;45.384;20.394;2023-04-15T07:08:20;14.43;;;8.07;;
55706;SDS011;41608;45.384;20.394;2023-04-15T07:10:46;7.45;;;5.47;;
55706;SDS011;41608;45.384;20.394;2023-04-15T07:13:12;13.02;;;5.78;;
55706;SDS011;41608;45.384;20.394;2023-04-15T07:15:41;10.00;;;5.35;;
55706;SDS011;41608;45.384;20.394;2023-04-15T07:18:10;10.45;;;6.63;;
55706;SDS011;41608;45.384;20.394;2023-04-15T07:20:36;6.80;;;4.70;;
55706;SDS011;41608;45.384;20.394;2023-04-15T07:23:02;7.82;;;4.63;;
55706;SDS011;41608;45.384;20.394;2023-04-15T07:25:34;7.03;;;3.70;;
55706;SDS011;41608;45.384;20.394;2023-04-15T07:28:00;6.43;;;3.97;;
55706;SDS011;41608;45.384;20.394;2023-04-15T07:30:29;7.97;;;4.35;;
55706;SDS011;41608;45.384;20.394;2023-04-15T07:32:57;9.32;;;4.38;;
55706;SDS011;41608;45.384;20.394;2023-04-15T07:35:23;11.15;;;4.20;;
55706;SDS011;41608;45.384;20.394;2023-04-15T07:37:50;5.28;;;3.50;;
55706;SDS011;41608;45.384;20.394;2023-04-15T07:40:16;9.80;;;5.50;;
55706;SDS011;41608;45.384;20.394;2023-04-15T07:42:43;5.43;;;3.20;;
55706;SDS011;41608;45.384;20.394;2023-04-15T07:45:13;6.03;;;3.03;;
55706;SDS011;41608;45.384;20.394;2023-04-15T07:47:40;6.95;;;3.63;;
55706;SDS011;41608;45.384;20.394;2023-04-15T07:50:08;8.15;;;3.83;;
55706;SDS011;41608;45.384;20.394;2023-04-15T07:52:37;4.53;;;2.97;;
55706;SDS011;41608;45.384;20.394;2023-04-15T07:55:04;9.25;;;3.70;;
55706;SDS011;41608;45.384;20.394;2023-04-15T07:57:32;5.50;;;2.78;;
55706;SDS011;41608;45.384;20.394;2023-04-15T08:00:02;6.72;;;3.35;;
55706;SDS011;41608;45.384;20.394;2023-04-15T08:02:31;7.45;;;2.90;;
55706;SDS011;41608;45.384;20.394;2023-04-15T08:04:57;6.82;;;3.10;;
55706;SDS011;41608;45.384;20.394;2023-04-15T08:07:25;10.20;;;3.55;;
55706;SDS011;41608;45.384;20.394;2023-04-15T08:09:51;8.02;;;3.05;;
55706;SDS011;41608;45.384;20.394;2023-04-15T08:12:17;8.48;;;2.45;;
55706;SDS011;41608;45.384;20.394;2023-04-15T08:14:43;11.55;;;3.13;;
55706;SDS011;41608;45.384;20.394;2023-04-15T08:17:10;7.38;;;2.72;;
55706;SDS011;41608;45.384;20.394;2023-04-15T08:19:36;4.03;;;2.08;;
55706;SDS011;41608;45.384;20.394;2023-04-15T08:22:03;7.05;;;2.60;;
55706;SDS011;41608;45.384;20.394;2023-04-15T08:24:33;4.45;;;2.22;;
55706;SDS011;41608;45.384;20.394;2023-04-15T08:27:02;4.55;;;2.05;;
55706;SDS011;41608;45.384;20.394;2023-04-15T08:29:30;6.88;;;2.20;;
55706;SDS011;41608;45.384;20.394;2023-04-15T08:31:56;4.45;;;2.20;;
55706;SDS011;41608;45.384;20.394;2023-04-15T08:34:24;10.18;;;2.80;;
55706;SDS011;41608;45.384;20.394;2023-04-15T08:36:53;3.38;;;1.45;;
55706;SDS011;41608;45.384;20.394;2023-04-15T08:39:19;3.63;;;1.70;;
55706;SDS011;41608;45.384;20.394;2023-04-15T08:44:17;4.75;;;2.15;;
55706;SDS011;41608;45.384;20.394;2023-04-15T08:46:46;4.68;;;1.73;;
55706;SDS011;41608;45.384;20.394;2023-04-15T08:49:18;5.20;;;1.60;;
55706;SDS011;41608;45.384;20.394;2023-04-15T08:51:47;5.05;;;1.60;;
55706;SDS011;41608;45.384;20.394;2023-04-15T08:54:13;2.35;;;1.20;;
55706;SDS011;41608;45.384;20.394;2023-04-15T08:56:40;4.38;;;1.98;;
55706;SDS011;41608;45.384;20.394;2023-04-15T08:59:07;5.65;;;1.58;;
55706;SDS011;41608;45.384;20.394;2023-04-15T09:01:36;3.42;;;1.38;;
55706;SDS011;41608;45.384;20.394;2023-04-15T09:04:02;8.60;;;3.28;;
55706;SDS011;41608;45.384;20.394;2023-04-15T09:06:31;2.60;;;1.52;;
55706;SDS011;41608;45.384;20.394;2023-04-15T09:08:57;5.75;;;2.08;;
55706;SDS011;41608;45.384;20.394;2023-04-15T09:11:24;4.07;;;2.00;;
55706;SDS011;41608;45.384;20.394;2023-04-15T09:13:51;2.83;;;1.17;;
55706;SDS011;41608;45.384;20.394;2023-04-15T09:16:19;5.85;;;1.95;;
55706;SDS011;41608;45.384;20.394;2023-04-15T09:18:46;4.10;;;2.10;;
55706;SDS011;41608;45.384;20.394;2023-04-15T09:21:13;4.55;;;1.77;;
55706;SDS011;41608;45.384;20.394;2023-04-15T09:23:40;3.55;;;1.73;;
55706;SDS011;41608;45.384;20.394;2023-04-15T09:26:06;5.10;;;1.40;;
55706;SDS011;41608;45.384;20.394;2023-04-15T09:28:33;4.97;;;1.98;;
55706;SDS011;41608;45.384;20.394;2023-04-15T09:31:05;4.25;;;1.92;;
55706;SDS011;41608;45.384;20.394;2023-04-15T09:33:32;9.13;;;2.10;;
55706;SDS011;41608;45.384;20.394;2023-04-15T09:36:01;8.32;;;2.65;;
55706;SDS011;41608;45.384;20.394;2023-04-15T09:38:32;5.65;;;2.08;;
55706;SDS011;41608;45.384;20.394;2023-04-15T09:40:58;6.15;;;1.50;;
55706;SDS011;41608;45.384;20.394;2023-04-15T09:43:38;3.35;;;1.40;;
55706;SDS011;41608;45.384;20.394;2023-04-15T09:46:04;8.05;;;2.40;;
55706;SDS011;41608;45.384;20.394;2023-04-15T09:48:31;3.80;;;1.80;;
55706;SDS011;41608;45.384;20.394;2023-04-15T09:50:57;5.20;;;1.80;;
55706;SDS011;41608;45.384;20.394;2023-04-15T09:53:27;2.42;;;1.50;;
55706;SDS011;41608;45.384;20.394;2023-04-15T09:55:57;6.18;;;2.85;;
55706;SDS011;41608;45.384;20.394;2023-04-15T09:58:31;5.03;;;2.30;;
55706;SDS011;41608;45.384;20.394;2023-04-15T10:00:58;2.08;;;1.35;;
55706;SDS011;41608;45.384;20.394;2023-04-15T10:03:26;3.25;;;1.17;;
55706;SDS011;41608;45.384;20.394;2023-04-15T10:05:53;5.95;;;1.45;;
55706;SDS011;41608;45.384;20.394;2023-04-15T10:08:21;3.72;;;1.50;;
55706;SDS011;41608;45.384;20.394;2023-04-15T10:10:53;5.38;;;2.03;;
55706;SDS011;41608;45.384;20.394;2023-04-15T10:13:23;6.47;;;2.67;;
55706;SDS011;41608;45.384;20.394;2023-04-15T10:15:50;8.20;;;3.22;;
55706;SDS011;41608;45.384;20.394;2023-04-15T10:18:18;4.47;;;2.55;;
55706;SDS011;41608;45.384;20.394;2023-04-15T10:20:46;2.63;;;1.27;;
55706;SDS011;41608;45.384;20.394;2023-04-15T10:23:13;2.05;;;0.95;;
55706;SDS011;41608;45.384;20.394;2023-04-15T10:25:40;3.03;;;1.20;;
55706;SDS011;41608;45.384;20.394;2023-04-15T10:28:15;2.42;;;1.38;;
55706;SDS011;41608;45.384;20.394;2023-04-15T10:30:41;3.53;;;2.30;;
55706;SDS011;41608;45.384;20.394;2023-04-15T10:33:08;2.95;;;1.33;;
55706;SDS011;41608;45.384;20.394;2023-04-15T10:35:35;3.03;;;1.20;;
55706;SDS011;41608;45.384;20.394;2023-04-15T10:38:01;2.75;;;1.25;;
55706;SDS011;41608;45.384;20.394;2023-04-15T10:42:56;2.13;;;1.25;;
55706;SDS011;41608;45.384;20.394;2023-04-15T10:45:24;4.07;;;1.50;;
55706;SDS011;41608;45.384;20.394;2023-04-15T10:47:55;4.00;;;1.73;;
55706;SDS011;41608;45.384;20.394;2023-04-15T10:50:21;2.15;;;1.23;;
55706;SDS011;41608;45.384;20.394;2023-04-15T10:52:49;7.50;;;1.90;;
55706;SDS011;41608;45.384;20.394;2023-04-15T10:55:20;4.28;;;1.40;;
55706;SDS011;41608;45.384;20.394;2023-04-15T10:57:53;2.00;;;1.13;;
55706;SDS011;41608;45.384;20.394;2023-04-15T11:00:21;3.20;;;1.20;;
55706;SDS011;41608;45.384;20.394;2023-04-15T11:02:56;3.35;;;0.90;;
55706;SDS011;41608;45.384;20.394;2023-04-15T11:05:47;2.55;;;1.23;;
55706;SDS011;41608;45.384;20.394;2023-04-15T11:08:13;2.75;;;1.10;;
55706;SDS011;41608;45.384;20.394;2023-04-15T11:15:48;3.80;;;1.33;;
55706;SDS011;41608;45.384;20.394;2023-04-15T11:18:19;1.60;;;1.02;;
55706;SDS011;41608;45.384;20.394;2023-04-15T11:23:19;2.50;;;1.10;;
55706;SDS011;41608;45.384;20.394;2023-04-15T11:25:46;4.32;;;1.20;;
55706;SDS011;41608;45.384;20.394;2023-04-15T11:28:15;3.63;;;1.52;;
55706;SDS011;41608;45.384;20.394;2023-04-15T11:30:41;4.88;;;1.35;;
55706;SDS011;41608;45.384;20.394;2023-04-15T11:33:09;2.65;;;1.42;;
55706;SDS011;41608;45.384;20.394;2023-04-15T11:35:40;2.25;;;1.10;;
55706;SDS011;41608;45.384;20.394;2023-04-15T11:38:10;5.03;;;1.80;;
55706;SDS011;41608;45.384;20.394;2023-04-15T11:40:36;1.88;;;1.10;;
55706;SDS011;41608;45.384;20.394;2023-04-15T11:43:05;1.70;;;1.20;;
55706;SDS011;41608;45.384;20.394;2023-04-15T11:45:31;2.20;;;1.00;;
55706;SDS011;41608;45.384;20.394;2023-04-15T11:48:07;1.77;;;1.00;;
55706;SDS011;41608;45.384;20.394;2023-04-15T11:50:35;1.95;;;0.77;;
55706;SDS011;41608;45.384;20.394;2023-04-15T11:53:14;3.88;;;0.90;;
55706;SDS011;41608;45.384;20.394;2023-04-15T11:55:40;1.15;;;1.00;;
55706;SDS011;41608;45.384;20.394;2023-04-15T11:58:09;1.67;;;0.93;;
55706;SDS011;41608;45.384;20.394;2023-04-15T12:00:36;3.20;;;1.65;;
55706;SDS011;41608;45.384;20.394;2023-04-15T12:03:11;5.07;;;2.05;;
55706;SDS011;41608;45.384;20.394;2023-04-15T12:06:01;4.78;;;1.40;;
55706;SDS011;41608;45.384;20.394;2023-04-15T12:08:23;6.47;;;2.05;;
55706;SDS011;41608;45.384;20.394;2023-04-15T12:10:50;4.13;;;1.77;;
55706;SDS011;41608;45.384;20.394;2023-04-15T12:13:16;1.60;;;1.00;;
55706;SDS011;41608;45.384;20.394;2023-04-15T12:15:51;1.20;;;1.05;;
55706;SDS011;41608;45.384;20.394;2023-04-15T12:18:17;1.23;;;0.80;;
55706;SDS011;41608;45.384;20.394;2023-04-15T12:20:44;0.70;;;0.70;;
55706;SDS011;41608;45.384;20.394;2023-04-15T12:23:10;2.05;;;1.30;;
55706;SDS011;41608;45.384;20.394;2023-04-15T12:25:36;2.75;;;1.15;;
55706;SDS011;41608;45.384;20.394;2023-04-15T12:28:09;0.85;;;0.77;;
55706;SDS011;41608;45.384;20.394;2023-04-15T12:30:36;1.23;;;0.60;;
55706;SDS011;41608;45.384;20.394;2023-04-15T12:33:02;1.33;;;1.10;;
55706;SDS011;41608;45.384;20.394;2023-04-15T12:35:31;1.25;;;0.80;;
55706;SDS011;41608;45.384;20.394;2023-04-15T12:37:57;3.58;;;0.80;;
55706;SDS011;41608;45.384;20.394;2023-04-15T12:40:24;2.05;;;0.95;;
55706;SDS011;41608;45.384;20.394;2023-04-15T12:42:50;2.67;;;0.90;;
55706;SDS011;41608;45.384;20.394;2023-04-15T12:45:16;1.33;;;0.88;;
55706;SDS011;41608;45.384;20.394;2023-04-15T12:47:47;2.22;;;1.05;;
55706;SDS011;41608;45.384;20.394;2023-04-15T12:50:13;1.15;;;0.82;;
55706;SDS011;41608;45.384;20.394;2023-04-15T12:52:43;1.23;;;0.93;;
55706;SDS011;41608;45.384;20.394;2023-04-15T12:55:09;6.20;;;1.58;;
55706;SDS011;41608;45.384;20.394;2023-04-15T12:57:36;2.00;;;1.63;;
55706;SDS011;41608;45.384;20.394;2023-04-15T13:00:04;2.28;;;1.02;;
55706;SDS011;41608;45.384;20.394;2023-04-15T13:02:32;3.92;;;0.88;;
55706;SDS011;41608;45.384;20.394;2023-04-15T13:05:01;1.33;;;1.05;;
55706;SDS011;41608;45.384;20.394;2023-04-15T13:07:28;2.75;;;1.00;;
55706;SDS011;41608;45.384;20.394;2023-04-15T13:09:54;2.45;;;1.02;;
55706;SDS011;41608;45.384;20.394;2023-04-15T13:12:20;3.38;;;1.00;;
55706;SDS011;41608;45.384;20.394;2023-04-15T13:14:47;3.10;;;1.00;;
55706;SDS011;41608;45.384;20.394;2023-04-15T13:17:13;7.53;;;3.00;;
55706;SDS011;41608;45.384;20.394;2023-04-15T13:19:41;4.13;;;2.30;;
55706;SDS011;41608;45.384;20.394;2023-04-15T13:22:07;1.88;;;1.02;;
55706;SDS011;41608;45.384;20.394;2023-04-15T13:24:34;1.55;;;1.00;;
55706;SDS011;41608;45.384;20.394;2023-04-15T13:29:35;1.63;;;1.27;;
55706;SDS011;41608;45.384;20.394;2023-04-15T13:32:02;1.35;;;1.13;;
55706;SDS011;41608;45.384;20.394;2023-04-15T13:34:28;2.78;;;1.17;;
55706;SDS011;41608;45.384;20.394;2023-04-15T13:36:57;1.27;;;0.95;;
55706;SDS011;41608;45.384;20.394;2023-04-15T13:39:23;4.00;;;1.40;;
55706;SDS011;41608;45.384;20.394;2023-04-15T13:41:49;1.80;;;0.80;;
55706;SDS011;41608;45.384;20.394;2023-04-15T13:44:15;1.38;;;0.82;;
55706;SDS011;41608;45.384;20.394;2023-04-15T13:46:41;1.30;;;0.90;;
55706;SDS011;41608;45.384;20.394;2023-04-15T13:49:14;5.10;;;2.30;;
55706;SDS011;41608;45.384;20.394;2023-04-15T13:51:40;9.00;;;4.10;;
55706;SDS011;41608;45.384;20.394;2023-04-15T13:54:15;5.57;;;2.17;;
55706;SDS011;41608;45.384;20.394;2023-04-15T13:56:41;1.77;;;1.25;;
55706;SDS011;41608;45.384;20.394;2023-04-15T13:59:10;3.65;;;3.35;;
55706;SDS011;41608;45.384;20.394;2023-04-15T14:01:39;3.22;;;1.45;;
55706;SDS011;41608;45.384;20.394;2023-04-15T14:04:08;4.53;;;1.60;;
55706;SDS011;41608;45.384;20.394;2023-04-15T14:06:35;4.28;;;1.35;;
55706;SDS011;41608;45.384;20.394;2023-04-15T14:09:01;5.03;;;1.65;;
55706;SDS011;41608;45.384;20.394;2023-04-15T14:11:27;1.60;;;0.85;;
55706;SDS011;41608;45.384;20.394;2023-04-15T14:13:56;4.55;;;1.08;;
55706;SDS011;41608;45.384;20.394;2023-04-15T14:16:22;3.05;;;1.30;;
55706;SDS011;41608;45.384;20.394;2023-04-15T14:18:51;5.47;;;1.42;;
55706;SDS011;41608;45.384;20.394;2023-04-15T14:21:18;2.05;;;1.00;;
55706;SDS011;41608;45.384;20.394;2023-04-15T14:23:55;2.17;;;1.30;;
55706;SDS011;41608;45.384;20.394;2023-04-15T14:26:22;2.95;;;1.73;;
55706;SDS011;41608;45.384;20.394;2023-04-15T14:28:48;1.38;;;0.88;;
55706;SDS011;41608;45.384;20.394;2023-04-15T14:31:14;1.85;;;1.35;;
55706;SDS011;41608;45.384;20.394;2023-04-15T14:33:40;3.00;;;1.05;;
55706;SDS011;41608;45.384;20.394;2023-04-15T14:36:10;3.05;;;1.10;;
55706;SDS011;41608;45.384;20.394;2023-04-15T14:38:36;3.35;;;1.17;;
55706;SDS011;41608;45.384;20.394;2023-04-15T14:41:04;8.25;;;1.90;;
55706;SDS011;41608;45.384;20.394;2023-04-15T14:43:31;1.70;;;0.88;;